Aviation Digital Data Service (ADDS)

Output produced by METARs form (0212 UTC 16 October 2018)
found at http://www.aviationweather.gov/metar/data/
 
METAR text: KILE 160208Z AUTO 36015G20KT 10SM RA BKN010 OVC015 06/06 A3021 RMK AO2 CIG 006V012 P0004
Conditions at: KILE (KILLEEN MUNI , TX, US) observed 0208 UTC 16 October 2018
Temperature: 6.0°C (43°F)
Dewpoint: 6.0°C (43°F) [RH = 100%]
Pressure (altimeter): 30.21 inches Hg (1023.1 mb)
Winds: from the N (360 degrees) at 17 MPH (15 knots; 7.7 m/s)
gusting to 23 MPH (20 knots; 10.3 m/s)
Visibility: 10 or more miles (16+ km)
Ceiling: 1000 feet AGL
Clouds: broken clouds at 1000 feet AGL
overcast cloud deck at 1500 feet AGL
Weather: RA  (moderate rain)

METAR text: KILE 160156Z AUTO 36011KT 9SM RA OVC008 06/06 A3023 RMK AO2 CIG 006V012 SLPNO P0026 T00610056
Conditions at: KILE (KILLEEN MUNI , TX, US) observed 0156 UTC 16 October 2018
Temperature: 6.1°C (43°F)
Dewpoint: 5.6°C (42°F) [RH = 97%]
Pressure (altimeter): 30.23 inches Hg (1023.8 mb)
Winds: from the N (360 degrees) at 13 MPH (11 knots; 5.7 m/s)
Visibility: 9 miles (14 km)
Ceiling: 800 feet AGL
Clouds: overcast cloud deck at 800 feet AGL
Weather: RA  (moderate rain)

METAR text: KILE 160135Z AUTO 01016G23KT 5SM -RA BR BKN008 OVC018 06/05 A3021 RMK AO2 CIG 007V011 P0019
Conditions at: KILE (KILLEEN MUNI , TX, US) observed 0135 UTC 16 October 2018
Temperature: 6.0°C (43°F)
Dewpoint: 5.0°C (41°F) [RH = 93%]
Pressure (altimeter): 30.21 inches Hg (1023.1 mb)
Winds: from the N (10 degrees) at 18 MPH (16 knots; 8.2 m/s)
gusting to 26 MPH (23 knots; 11.8 m/s)
Visibility: 5 miles ( 8 km)
Ceiling: 800 feet AGL
Clouds: broken clouds at 800 feet AGL
overcast cloud deck at 1800 feet AGL
Weather: -RA BR  (light rain, mist)